sensor_id;sensor_type;location;lat;lon;timestamp;temperature;humidity
24686;DHT22;12804;51.176;4.452;2022-11-20T00:00:50;5.20;99.90
24686;DHT22;12804;51.176;4.452;2022-11-20T00:03:16;5.30;99.90
24686;DHT22;12804;51.176;4.452;2022-11-20T00:05:42;5.40;99.90
24686;DHT22;12804;51.176;4.452;2022-11-20T00:08:08;5.40;99.90
24686;DHT22;12804;51.176;4.452;2022-11-20T00:10:39;5.20;99.90
24686;DHT22;12804;51.176;4.452;2022-11-20T00:13:05;5.20;99.90
24686;DHT22;12804;51.176;4.452;2022-11-20T00:15:31;5.30;99.90
24686;DHT22;12804;51.176;4.452;2022-11-20T00:17:57;5.50;99.90
24686;DHT22;12804;51.176;4.452;2022-11-20T00:20:23;5.60;99.90
24686;DHT22;12804;51.176;4.452;2022-11-20T00:22:49;5.60;99.90
24686;DHT22;12804;51.176;4.452;2022-11-20T00:25:15;5.60;99.90
24686;DHT22;12804;51.176;4.452;2022-11-20T00:27:41;5.40;99.90
24686;DHT22;12804;51.176;4.452;2022-11-20T00:30:07;5.40;99.90
24686;DHT22;12804;51.176;4.452;2022-11-20T00:32:33;5.50;99.90
24686;DHT22;12804;51.176;4.452;2022-11-20T00:34:59;5.50;99.90
24686;DHT22;12804;51.176;4.452;2022-11-20T00:37:25;5.40;99.90
24686;DHT22;12804;51.176;4.452;2022-11-20T00:39:51;5.40;99.90
24686;DHT22;12804;51.176;4.452;2022-11-20T00:42:17;5.40;99.90
24686;DHT22;12804;51.176;4.452;2022-11-20T00:44:43;5.60;99.90
24686;DHT22;12804;51.176;4.452;2022-11-20T00:47:08;5.50;99.90
24686;DHT22;12804;51.176;4.452;2022-11-20T00:49:34;5.60;99.90
24686;DHT22;12804;51.176;4.452;2022-11-20T00:52:00;5.70;99.90
24686;DHT22;12804;51.176;4.452;2022-11-20T00:54:26;5.50;99.90
24686;DHT22;12804;51.176;4.452;2022-11-20T00:56:54;5.50;99.90
24686;DHT22;12804;51.176;4.452;2022-11-20T00:59:20;5.60;99.90
24686;DHT22;12804;51.176;4.452;2022-11-20T01:01:46;5.60;99.90
24686;DHT22;12804;51.176;4.452;2022-11-20T01:04:12;5.70;99.90
24686;DHT22;12804;51.176;4.452;2022-11-20T01:06:39;5.70;99.90
24686;DHT22;12804;51.176;4.452;2022-11-20T01:09:09;5.70;99.90
24686;DHT22;12804;51.176;4.452;2022-11-20T01:11:37;5.70;99.90
24686;DHT22;12804;51.176;4.452;2022-11-20T01:14:06;5.80;99.90
24686;DHT22;12804;51.176;4.452;2022-11-20T01:16:34;5.70;99.90
24686;DHT22;12804;51.176;4.452;2022-11-20T01:19:02;5.60;99.90
24686;DHT22;12804;51.176;4.452;2022-11-20T01:21:31;5.50;99.90
24686;DHT22;12804;51.176;4.452;2022-11-20T01:23:58;5.50;99.90
24686;DHT22;12804;51.176;4.452;2022-11-20T01:26:26;5.50;99.90
24686;DHT22;12804;51.176;4.452;2022-11-20T01:28:53;5.50;99.90
24686;DHT22;12804;51.176;4.452;2022-11-20T01:33:55;5.70;99.90
24686;DHT22;12804;51.176;4.452;2022-11-20T01:36:24;5.60;99.90
24686;DHT22;12804;51.176;4.452;2022-11-20T01:38:58;5.60;99.90
24686;DHT22;12804;51.176;4.452;2022-11-20T01:41:25;5.40;99.90
24686;DHT22;12804;51.176;4.452;2022-11-20T01:44:12;5.30;99.90
24686;DHT22;12804;51.176;4.452;2022-11-20T01:46:48;5.30;99.90
24686;DHT22;12804;51.176;4.452;2022-11-20T01:49:21;5.20;99.90
24686;DHT22;12804;51.176;4.452;2022-11-20T01:51:57;5.10;99.90
24686;DHT22;12804;51.176;4.452;2022-11-20T01:54:51;5.00;99.90
24686;DHT22;12804;51.176;4.452;2022-11-20T01:57:19;5.00;99.90
24686;DHT22;12804;51.176;4.452;2022-11-20T01:59:53;4.90;99.90
24686;DHT22;12804;51.176;4.452;2022-11-20T02:02:20;5.00;99.90
24686;DHT22;12804;51.176;4.452;2022-11-20T02:04:47;5.10;99.90
24686;DHT22;12804;51.176;4.452;2022-11-20T02:07:14;5.20;99.90
24686;DHT22;12804;51.176;4.452;2022-11-20T02:09:41;5.30;99.90
24686;DHT22;12804;51.176;4.452;2022-11-20T02:12:07;5.30;99.90
24686;DHT22;12804;51.176;4.452;2022-11-20T02:14:52;5.20;99.90
24686;DHT22;12804;51.176;4.452;2022-11-20T02:17:18;5.20;99.90
24686;DHT22;12804;51.176;4.452;2022-11-20T02:19:44;5.30;99.90
24686;DHT22;12804;51.176;4.452;2022-11-20T02:22:35;5.30;99.90
24686;DHT22;12804;51.176;4.452;2022-11-20T02:25:05;5.30;99.90
24686;DHT22;12804;51.176;4.452;2022-11-20T02:27:31;5.30;99.90
24686;DHT22;12804;51.176;4.452;2022-11-20T02:30:01;5.30;99.90
24686;DHT22;12804;51.176;4.452;2022-11-20T02:32:33;5.30;99.90
24686;DHT22;12804;51.176;4.452;2022-11-20T02:35:07;5.30;99.90
24686;DHT22;12804;51.176;4.452;2022-11-20T02:37:37;5.20;99.90
24686;DHT22;12804;51.176;4.452;2022-11-20T02:40:04;5.20;99.90
24686;DHT22;12804;51.176;4.452;2022-11-20T02:42:30;5.30;99.90
24686;DHT22;12804;51.176;4.452;2022-11-20T02:44:56;5.30;99.90
24686;DHT22;12804;51.176;4.452;2022-11-20T02:47:22;5.00;99.90
24686;DHT22;12804;51.176;4.452;2022-11-20T02:49:47;4.80;99.90
24686;DHT22;12804;51.176;4.452;2022-11-20T02:52:13;4.70;99.90
24686;DHT22;12804;51.176;4.452;2022-11-20T02:54:39;4.70;99.90
24686;DHT22;12804;51.176;4.452;2022-11-20T02:57:05;4.60;99.90
24686;DHT22;12804;51.176;4.452;2022-11-20T02:59:30;4.60;99.90
24686;DHT22;12804;51.176;4.452;2022-11-20T03:01:56;4.70;99.90
24686;DHT22;12804;51.176;4.452;2022-11-20T03:04:22;4.60;99.90
24686;DHT22;12804;51.176;4.452;2022-11-20T03:06:48;4.40;99.90
24686;DHT22;12804;51.176;4.452;2022-11-20T03:09:14;4.40;99.90
24686;DHT22;12804;51.176;4.452;2022-11-20T03:11:39;4.40;99.90
24686;DHT22;12804;51.176;4.452;2022-11-20T03:14:05;4.40;99.90
24686;DHT22;12804;51.176;4.452;2022-11-20T03:16:32;4.50;99.90
24686;DHT22;12804;51.176;4.452;2022-11-20T03:18:58;4.60;99.90
24686;DHT22;12804;51.176;4.452;2022-11-20T03:21:24;4.50;99.90
24686;DHT22;12804;51.176;4.452;2022-11-20T03:23:50;4.50;99.90
24686;DHT22;12804;51.176;4.452;2022-11-20T03:26:19;4.50;99.90
24686;DHT22;12804;51.176;4.452;2022-11-20T03:28:53;4.40;99.90
24686;DHT22;12804;51.176;4.452;2022-11-20T03:31:27;4.50;99.90
24686;DHT22;12804;51.176;4.452;2022-11-20T03:33:53;4.50;99.90
24686;DHT22;12804;51.176;4.452;2022-11-20T03:36:20;4.60;99.90
24686;DHT22;12804;51.176;4.452;2022-11-20T03:38:47;4.80;99.90
24686;DHT22;12804;51.176;4.452;2022-11-20T03:41:25;5.00;99.90
24686;DHT22;12804;51.176;4.452;2022-11-20T03:43:59;4.90;99.90
24686;DHT22;12804;51.176;4.452;2022-11-20T03:46:25;4.80;99.90
24686;DHT22;12804;51.176;4.452;2022-11-20T03:48:52;4.90;99.90
24686;DHT22;12804;51.176;4.452;2022-11-20T03:51:20;4.70;99.90
24686;DHT22;12804;51.176;4.452;2022-11-20T03:53:47;4.60;99.90
24686;DHT22;12804;51.176;4.452;2022-11-20T03:56:15;4.50;99.90
24686;DHT22;12804;51.176;4.452;2022-11-20T03:58:42;4.50;99.90
24686;DHT22;12804;51.176;4.452;2022-11-20T04:01:11;4.50;99.90
24686;DHT22;12804;51.176;4.452;2022-11-20T04:03:39;4.60;99.90
24686;DHT22;12804;51.176;4.452;2022-11-20T04:06:07;4.70;99.90
24686;DHT22;12804;51.176;4.452;2022-11-20T04:08:34;4.70;99.90
24686;DHT22;12804;51.176;4.452;2022-11-20T04:11:22;4.80;99.90
24686;DHT22;12804;51.176;4.452;2022-11-20T04:13:51;4.70;99.90
24686;DHT22;12804;51.176;4.452;2022-11-20T04:16:17;4.80;99.90
24686;DHT22;12804;51.176;4.452;2022-11-20T04:18:44;5.00;99.90
24686;DHT22;12804;51.176;4.452;2022-11-20T04:21:10;5.00;99.90
24686;DHT22;12804;51.176;4.452;2022-11-20T04:23:36;5.10;99.90
24686;DHT22;12804;51.176;4.452;2022-11-20T04:26:07;5.20;99.90
24686;DHT22;12804;51.176;4.452;2022-11-20T04:28:33;5.00;99.90
24686;DHT22;12804;51.176;4.452;2022-11-20T04:31:13;5.10;99.90
24686;DHT22;12804;51.176;4.452;2022-11-20T04:33:39;4.80;99.90
24686;DHT22;12804;51.176;4.452;2022-11-20T04:36:14;4.70;99.90
24686;DHT22;12804;51.176;4.452;2022-11-20T04:38:40;5.00;99.90
24686;DHT22;12804;51.176;4.452;2022-11-20T04:41:08;5.00;99.90
24686;DHT22;12804;51.176;4.452;2022-11-20T04:43:36;4.90;99.90
24686;DHT22;12804;51.176;4.452;2022-11-20T04:46:02;4.70;99.90
24686;DHT22;12804;51.176;4.452;2022-11-20T04:48:28;4.60;99.90
24686;DHT22;12804;51.176;4.452;2022-11-20T04:50:55;4.60;99.90
24686;DHT22;12804;51.176;4.452;2022-11-20T04:53:22;4.70;99.90
24686;DHT22;12804;51.176;4.452;2022-11-20T04:55:48;4.80;99.90
24686;DHT22;12804;51.176;4.452;2022-11-20T04:58:14;4.90;99.90
24686;DHT22;12804;51.176;4.452;2022-11-20T05:00:40;5.00;99.90
24686;DHT22;12804;51.176;4.452;2022-11-20T05:03:06;5.00;99.90
24686;DHT22;12804;51.176;4.452;2022-11-20T05:05:33;5.00;99.90
24686;DHT22;12804;51.176;4.452;2022-11-20T05:07:59;5.20;99.90
24686;DHT22;12804;51.176;4.452;2022-11-20T05:10:26;5.10;99.90
24686;DHT22;12804;51.176;4.452;2022-11-20T05:12:52;5.20;99.90
24686;DHT22;12804;51.176;4.452;2022-11-20T05:15:18;5.20;99.90
24686;DHT22;12804;51.176;4.452;2022-11-20T05:17:51;5.10;99.90
24686;DHT22;12804;51.176;4.452;2022-11-20T05:20:17;5.30;99.90
24686;DHT22;12804;51.176;4.452;2022-11-20T05:22:43;5.30;99.90
24686;DHT22;12804;51.176;4.452;2022-11-20T05:25:10;5.30;99.90
24686;DHT22;12804;51.176;4.452;2022-11-20T05:27:36;5.40;99.90
24686;DHT22;12804;51.176;4.452;2022-11-20T05:30:03;5.40;99.90
24686;DHT22;12804;51.176;4.452;2022-11-20T05:32:29;5.50;99.90
24686;DHT22;12804;51.176;4.452;2022-11-20T05:34:55;5.50;99.90
24686;DHT22;12804;51.176;4.452;2022-11-20T05:37:21;5.50;99.90
24686;DHT22;12804;51.176;4.452;2022-11-20T05:39:46;5.30;99.90
24686;DHT22;12804;51.176;4.452;2022-11-20T05:42:12;5.30;99.90
24686;DHT22;12804;51.176;4.452;2022-11-20T05:45:07;5.40;99.90
24686;DHT22;12804;51.176;4.452;2022-11-20T05:47:34;5.40;99.90
24686;DHT22;12804;51.176;4.452;2022-11-20T05:50:01;5.30;99.90
24686;DHT22;12804;51.176;4.452;2022-11-20T05:52:30;5.30;99.90
24686;DHT22;12804;51.176;4.452;2022-11-20T05:54:56;5.20;99.90
24686;DHT22;12804;51.176;4.452;2022-11-20T05:57:22;5.30;99.90
24686;DHT22;12804;51.176;4.452;2022-11-20T05:59:48;5.20;99.90
24686;DHT22;12804;51.176;4.452;2022-11-20T06:02:13;5.20;99.90
24686;DHT22;12804;51.176;4.452;2022-11-20T06:04:39;5.30;99.90
24686;DHT22;12804;51.176;4.452;2022-11-20T06:07:05;5.30;99.90
24686;DHT22;12804;51.176;4.452;2022-11-20T06:09:32;5.30;99.90
24686;DHT22;12804;51.176;4.452;2022-11-20T06:11:58;5.10;99.90
24686;DHT22;12804;51.176;4.452;2022-11-20T06:14:23;5.10;99.90
24686;DHT22;12804;51.176;4.452;2022-11-20T06:16:49;5.00;99.90
24686;DHT22;12804;51.176;4.452;2022-11-20T06:19:15;4.90;99.90
24686;DHT22;12804;51.176;4.452;2022-11-20T06:21:41;4.80;99.90
24686;DHT22;12804;51.176;4.452;2022-11-20T06:24:09;4.50;99.90
24686;DHT22;12804;51.176;4.452;2022-11-20T06:26:34;4.40;99.90
24686;DHT22;12804;51.176;4.452;2022-11-20T06:29:00;4.40;99.90
24686;DHT22;12804;51.176;4.452;2022-11-20T06:31:26;4.70;99.90
24686;DHT22;12804;51.176;4.452;2022-11-20T06:33:52;4.60;99.90
24686;DHT22;12804;51.176;4.452;2022-11-20T06:36:21;4.70;99.90
24686;DHT22;12804;51.176;4.452;2022-11-20T06:38:47;4.70;99.90
24686;DHT22;12804;51.176;4.452;2022-11-20T06:41:16;4.70;99.90
24686;DHT22;12804;51.176;4.452;2022-11-20T06:43:42;4.80;99.90
24686;DHT22;12804;51.176;4.452;2022-11-20T06:46:12;4.90;99.90
24686;DHT22;12804;51.176;4.452;2022-11-20T06:48:39;4.80;99.90
24686;DHT22;12804;51.176;4.452;2022-11-20T06:51:06;4.50;99.90
24686;DHT22;12804;51.176;4.452;2022-11-20T06:53:32;4.50;99.90
24686;DHT22;12804;51.176;4.452;2022-11-20T06:55:58;4.60;99.90
24686;DHT22;12804;51.176;4.452;2022-11-20T06:58:27;4.60;99.90
24686;DHT22;12804;51.176;4.452;2022-11-20T07:00:54;4.60;99.90
24686;DHT22;12804;51.176;4.452;2022-11-20T07:03:22;4.40;99.90
24686;DHT22;12804;51.176;4.452;2022-11-20T07:05:48;4.50;99.90
24686;DHT22;12804;51.176;4.452;2022-11-20T07:08:14;4.30;99.90
24686;DHT22;12804;51.176;4.452;2022-11-20T07:10:40;4.60;99.90
24686;DHT22;12804;51.176;4.452;2022-11-20T07:13:06;4.70;99.90
24686;DHT22;12804;51.176;4.452;2022-11-20T07:15:33;4.80;99.90
24686;DHT22;12804;51.176;4.452;2022-11-20T07:18:00;4.90;99.90
24686;DHT22;12804;51.176;4.452;2022-11-20T07:20:26;5.00;99.90
24686;DHT22;12804;51.176;4.452;2022-11-20T07:22:56;5.10;99.90
24686;DHT22;12804;51.176;4.452;2022-11-20T07:25:26;5.10;99.90
24686;DHT22;12804;51.176;4.452;2022-11-20T07:27:56;5.20;99.90
24686;DHT22;12804;51.176;4.452;2022-11-20T07:30:22;5.20;99.90
24686;DHT22;12804;51.176;4.452;2022-11-20T07:32:50;5.20;99.90
24686;DHT22;12804;51.176;4.452;2022-11-20T07:35:16;5.10;99.90
24686;DHT22;12804;51.176;4.452;2022-11-20T07:37:42;5.20;99.90
24686;DHT22;12804;51.176;4.452;2022-11-20T07:40:08;5.20;99.90
24686;DHT22;12804;51.176;4.452;2022-11-20T07:42:34;5.30;99.90
24686;DHT22;12804;51.176;4.452;2022-11-20T07:45:01;5.50;99.90
24686;DHT22;12804;51.176;4.452;2022-11-20T07:47:26;5.50;99.90
24686;DHT22;12804;51.176;4.452;2022-11-20T07:49:52;5.60;99.90
24686;DHT22;12804;51.176;4.452;2022-11-20T07:52:18;5.60;99.90
24686;DHT22;12804;51.176;4.452;2022-11-20T07:54:44;5.60;99.90
24686;DHT22;12804;51.176;4.452;2022-11-20T07:57:09;5.50;99.90
24686;DHT22;12804;51.176;4.452;2022-11-20T07:59:36;5.50;99.90
24686;DHT22;12804;51.176;4.452;2022-11-20T08:02:02;5.50;99.90
24686;DHT22;12804;51.176;4.452;2022-11-20T08:04:27;5.60;99.90
24686;DHT22;12804;51.176;4.452;2022-11-20T08:06:53;5.80;99.90
24686;DHT22;12804;51.176;4.452;2022-11-20T08:09:19;5.70;99.90
24686;DHT22;12804;51.176;4.452;2022-11-20T08:11:45;5.60;99.90
24686;DHT22;12804;51.176;4.452;2022-11-20T08:14:29;5.50;99.90
24686;DHT22;12804;51.176;4.452;2022-11-20T08:16:55;5.50;99.90
24686;DHT22;12804;51.176;4.452;2022-11-20T08:19:21;5.60;99.90
24686;DHT22;12804;51.176;4.452;2022-11-20T08:21:46;5.60;99.90
24686;DHT22;12804;51.176;4.452;2022-11-20T08:24:12;5.80;99.90
24686;DHT22;12804;51.176;4.452;2022-11-20T08:26:39;6.00;99.90
24686;DHT22;12804;51.176;4.452;2022-11-20T08:29:05;6.00;99.90
24686;DHT22;12804;51.176;4.452;2022-11-20T08:31:32;6.00;99.90
24686;DHT22;12804;51.176;4.452;2022-11-20T08:33:57;6.20;99.90
24686;DHT22;12804;51.176;4.452;2022-11-20T08:36:24;6.20;99.90
24686;DHT22;12804;51.176;4.452;2022-11-20T08:38:51;6.20;99.90
24686;DHT22;12804;51.176;4.452;2022-11-20T08:41:18;6.20;99.90
24686;DHT22;12804;51.176;4.452;2022-11-20T08:44:00;6.20;99.90
24686;DHT22;12804;51.176;4.452;2022-11-20T08:46:38;6.30;99.90
24686;DHT22;12804;51.176;4.452;2022-11-20T08:49:06;6.30;99.90
24686;DHT22;12804;51.176;4.452;2022-11-20T08:51:32;6.30;99.90
24686;DHT22;12804;51.176;4.452;2022-11-20T08:53:58;6.20;99.90
24686;DHT22;12804;51.176;4.452;2022-11-20T08:56:24;6.20;99.90
24686;DHT22;12804;51.176;4.452;2022-11-20T08:58:51;6.20;99.90
24686;DHT22;12804;51.176;4.452;2022-11-20T09:01:18;6.20;99.90
24686;DHT22;12804;51.176;4.452;2022-11-20T09:03:45;6.40;99.90
24686;DHT22;12804;51.176;4.452;2022-11-20T09:06:11;6.50;99.90
24686;DHT22;12804;51.176;4.452;2022-11-20T09:08:37;6.40;99.90
24686;DHT22;12804;51.176;4.452;2022-11-20T09:11:03;6.50;99.90
24686;DHT22;12804;51.176;4.452;2022-11-20T09:13:30;6.60;99.90
24686;DHT22;12804;51.176;4.452;2022-11-20T09:15:58;6.60;99.90
24686;DHT22;12804;51.176;4.452;2022-11-20T09:18:24;6.60;99.90
24686;DHT22;12804;51.176;4.452;2022-11-20T09:20:51;6.60;99.90
24686;DHT22;12804;51.176;4.452;2022-11-20T09:23:17;6.70;99.90
24686;DHT22;12804;51.176;4.452;2022-11-20T09:25:43;6.90;99.90
24686;DHT22;12804;51.176;4.452;2022-11-20T09:28:09;7.00;99.90
24686;DHT22;12804;51.176;4.452;2022-11-20T09:30:35;6.80;99.90
24686;DHT22;12804;51.176;4.452;2022-11-20T09:33:01;6.80;99.90
24686;DHT22;12804;51.176;4.452;2022-11-20T09:35:29;6.90;99.90
24686;DHT22;12804;51.176;4.452;2022-11-20T09:37:55;6.90;99.90
24686;DHT22;12804;51.176;4.452;2022-11-20T09:40:23;6.90;99.90
24686;DHT22;12804;51.176;4.452;2022-11-20T09:45:39;6.90;99.90
24686;DHT22;12804;51.176;4.452;2022-11-20T09:50:52;6.90;99.90
24686;DHT22;12804;51.176;4.452;2022-11-20T09:56:17;6.60;99.90
24686;DHT22;12804;51.176;4.452;2022-11-20T09:58:51;6.50;99.90
24686;DHT22;12804;51.176;4.452;2022-11-20T10:01:19;6.60;99.90
24686;DHT22;12804;51.176;4.452;2022-11-20T10:03:49;6.80;99.90
24686;DHT22;12804;51.176;4.452;2022-11-20T10:06:18;7.00;99.90
24686;DHT22;12804;51.176;4.452;2022-11-20T10:08:52;7.20;99.90
24686;DHT22;12804;51.176;4.452;2022-11-20T10:22:16;7.00;99.90
24686;DHT22;12804;51.176;4.452;2022-11-20T10:27:46;7.10;99.90
24686;DHT22;12804;51.176;4.452;2022-11-20T10:30:19;7.20;99.90
24686;DHT22;12804;51.176;4.452;2022-11-20T10:33:04;7.30;99.90
24686;DHT22;12804;51.176;4.452;2022-11-20T10:35:43;7.30;99.90
24686;DHT22;12804;51.176;4.452;2022-11-20T10:38:16;7.50;99.90
24686;DHT22;12804;51.176;4.452;2022-11-20T10:40:54;7.60;99.90
24686;DHT22;12804;51.176;4.452;2022-11-20T10:43:40;7.50;99.90
24686;DHT22;12804;51.176;4.452;2022-11-20T10:46:17;7.60;99.90
24686;DHT22;12804;51.176;4.452;2022-11-20T10:48:44;7.50;99.90
24686;DHT22;12804;51.176;4.452;2022-11-20T10:51:36;7.70;99.90
24686;DHT22;12804;51.176;4.452;2022-11-20T10:56:50;7.90;99.90
24686;DHT22;12804;51.176;4.452;2022-11-20T10:59:41;8.00;99.90
24686;DHT22;12804;51.176;4.452;2022-11-20T11:02:23;8.30;99.90
24686;DHT22;12804;51.176;4.452;2022-11-20T11:04:53;8.10;99.90
24686;DHT22;12804;51.176;4.452;2022-11-20T11:07:27;8.10;99.90
24686;DHT22;12804;51.176;4.452;2022-11-20T11:09:56;8.20;99.90
24686;DHT22;12804;51.176;4.452;2022-11-20T11:12:25;8.30;99.90
24686;DHT22;12804;51.176;4.452;2022-11-20T11:14:57;8.30;99.90
24686;DHT22;12804;51.176;4.452;2022-11-20T11:17:27;8.20;99.90
24686;DHT22;12804;51.176;4.452;2022-11-20T11:20:22;8.20;99.90
24686;DHT22;12804;51.176;4.452;2022-11-20T11:22:51;8.30;99.90
24686;DHT22;12804;51.176;4.452;2022-11-20T11:27:47;8.50;99.90
24686;DHT22;12804;51.176;4.452;2022-11-20T11:30:18;8.70;99.90
24686;DHT22;12804;51.176;4.452;2022-11-20T11:32:44;9.00;99.90
24686;DHT22;12804;51.176;4.452;2022-11-20T11:35:24;9.10;99.90
24686;DHT22;12804;51.176;4.452;2022-11-20T11:37:51;8.90;99.90
24686;DHT22;12804;51.176;4.452;2022-11-20T11:40:21;9.10;99.90
24686;DHT22;12804;51.176;4.452;2022-11-20T11:43:02;9.30;99.90
24686;DHT22;12804;51.176;4.452;2022-11-20T11:45:28;9.40;99.90
24686;DHT22;12804;51.176;4.452;2022-11-20T11:47:57;9.50;99.90
24686;DHT22;12804;51.176;4.452;2022-11-20T11:50:28;9.60;99.90
24686;DHT22;12804;51.176;4.452;2022-11-20T11:53:13;9.50;99.90
24686;DHT22;12804;51.176;4.452;2022-11-20T11:55:46;9.50;99.90
24686;DHT22;12804;51.176;4.452;2022-11-20T12:04:37;9.70;99.90
24686;DHT22;12804;51.176;4.452;2022-11-20T12:10:03;9.70;99.90
24686;DHT22;12804;51.176;4.452;2022-11-20T12:12:39;9.70;99.90
24686;DHT22;12804;51.176;4.452;2022-11-20T12:15:11;9.80;99.90
24686;DHT22;12804;51.176;4.452;2022-11-20T12:17:39;9.80;99.90
24686;DHT22;12804;51.176;4.452;2022-11-20T12:20:15;9.80;99.90
24686;DHT22;12804;51.176;4.452;2022-11-20T12:23:05;9.80;99.90
24686;DHT22;12804;51.176;4.452;2022-11-20T12:25:35;9.80;99.90
24686;DHT22;12804;51.176;4.452;2022-11-20T12:28:04;9.60;99.90
24686;DHT22;12804;51.176;4.452;2022-11-20T12:30:45;9.50;99.90
24686;DHT22;12804;51.176;4.452;2022-11-20T12:36:17;9.60;99.90
24686;DHT22;12804;51.176;4.452;2022-11-20T12:41:43;9.20;99.90
24686;DHT22;12804;51.176;4.452;2022-11-20T12:53:29;8.40;99.90
24686;DHT22;12804;51.176;4.452;2022-11-20T13:07:12;8.10;99.90
24686;DHT22;12804;51.176;4.452;2022-11-20T13:09:45;8.00;99.90
24686;DHT22;12804;51.176;4.452;2022-11-20T13:12:16;8.00;99.90
24686;DHT22;12804;51.176;4.452;2022-11-20T13:17:47;7.90;99.90
24686;DHT22;12804;51.176;4.452;2022-11-20T13:20:18;7.90;99.90
24686;DHT22;12804;51.176;4.452;2022-11-20T13:22:51;7.90;99.90
24686;DHT22;12804;51.176;4.452;2022-11-20T13:27:54;7.90;99.90
24686;DHT22;12804;51.176;4.452;2022-11-20T13:30:22;7.90;99.90
24686;DHT22;12804;51.176;4.452;2022-11-20T13:32:57;7.80;99.90
24686;DHT22;12804;51.176;4.452;2022-11-20T13:35:54;7.70;99.90
24686;DHT22;12804;51.176;4.452;2022-11-20T13:38:15;7.80;99.90
24686;DHT22;12804;51.176;4.452;2022-11-20T13:40:56;7.90;99.90
24686;DHT22;12804;51.176;4.452;2022-11-20T13:43:26;7.90;99.90
24686;DHT22;12804;51.176;4.452;2022-11-20T13:46:00;7.90;99.90
24686;DHT22;12804;51.176;4.452;2022-11-20T13:48:33;7.90;99.90
24686;DHT22;12804;51.176;4.452;2022-11-20T13:53:47;7.80;99.90
24686;DHT22;12804;51.176;4.452;2022-11-20T13:56:34;7.70;99.90
24686;DHT22;12804;51.176;4.452;2022-11-20T14:02:11;7.70;99.90
24686;DHT22;12804;51.176;4.452;2022-11-20T14:04:42;7.70;99.90
24686;DHT22;12804;51.176;4.452;2022-11-20T14:07:09;7.70;99.90
24686;DHT22;12804;51.176;4.452;2022-11-20T14:09:35;7.70;99.90
24686;DHT22;12804;51.176;4.452;2022-11-20T14:12:02;7.70;99.90
24686;DHT22;12804;51.176;4.452;2022-11-20T14:14:30;7.70;99.90
24686;DHT22;12804;51.176;4.452;2022-11-20T14:17:21;7.70;99.90
24686;DHT22;12804;51.176;4.452;2022-11-20T14:19:50;7.70;99.90
24686;DHT22;12804;51.176;4.452;2022-11-20T14:22:24;7.70;99.90
24686;DHT22;12804;51.176;4.452;2022-11-20T14:27:37;7.70;99.90
24686;DHT22;12804;51.176;4.452;2022-11-20T14:30:05;7.70;99.90
24686;DHT22;12804;51.176;4.452;2022-11-20T14:32:31;7.80;99.90
24686;DHT22;12804;51.176;4.452;2022-11-20T14:35:06;7.80;99.90
24686;DHT22;12804;51.176;4.452;2022-11-20T14:37:37;7.80;99.90
24686;DHT22;12804;51.176;4.452;2022-11-20T14:40:25;7.80;99.90
24686;DHT22;12804;51.176;4.452;2022-11-20T14:42:52;7.90;99.90
24686;DHT22;12804;51.176;4.452;2022-11-20T14:45:18;7.90;99.90
24686;DHT22;12804;51.176;4.452;2022-11-20T14:47:45;7.90;99.90
24686;DHT22;12804;51.176;4.452;2022-11-20T14:50:25;7.90;99.90
24686;DHT22;12804;51.176;4.452;2022-11-20T14:52:57;7.90;99.90
24686;DHT22;12804;51.176;4.452;2022-11-20T14:55:37;7.90;99.90
24686;DHT22;12804;51.176;4.452;2022-11-20T14:58:06;8.00;99.90
24686;DHT22;12804;51.176;4.452;2022-11-20T15:00:34;8.00;99.90
24686;DHT22;12804;51.176;4.452;2022-11-20T15:03:00;8.00;99.90
24686;DHT22;12804;51.176;4.452;2022-11-20T15:05:45;8.00;99.90
24686;DHT22;12804;51.176;4.452;2022-11-20T15:08:12;8.10;99.90
24686;DHT22;12804;51.176;4.452;2022-11-20T15:10:39;8.20;99.90
24686;DHT22;12804;51.176;4.452;2022-11-20T15:13:37;8.20;99.90
24686;DHT22;12804;51.176;4.452;2022-11-20T15:16:03;8.20;99.90
24686;DHT22;12804;51.176;4.452;2022-11-20T15:18:32;8.30;99.90
24686;DHT22;12804;51.176;4.452;2022-11-20T15:21:02;8.30;99.90
24686;DHT22;12804;51.176;4.452;2022-11-20T15:23:29;8.20;99.90
24686;DHT22;12804;51.176;4.452;2022-11-20T15:25:55;8.30;99.90
24686;DHT22;12804;51.176;4.452;2022-11-20T15:30:49;8.30;99.90
24686;DHT22;12804;51.176;4.452;2022-11-20T15:33:16;8.30;99.90
24686;DHT22;12804;51.176;4.452;2022-11-20T15:35:43;8.30;99.90
24686;DHT22;12804;51.176;4.452;2022-11-20T15:38:09;8.30;99.90
24686;DHT22;12804;51.176;4.452;2022-11-20T15:40:35;8.30;99.90
24686;DHT22;12804;51.176;4.452;2022-11-20T15:43:01;8.30;99.90
24686;DHT22;12804;51.176;4.452;2022-11-20T15:45:45;8.50;99.90
24686;DHT22;12804;51.176;4.452;2022-11-20T15:48:15;8.40;99.90
24686;DHT22;12804;51.176;4.452;2022-11-20T15:53:18;8.40;99.90
24686;DHT22;12804;51.176;4.452;2022-11-20T15:55:44;8.40;99.90
24686;DHT22;12804;51.176;4.452;2022-11-20T15:58:10;8.40;99.90
24686;DHT22;12804;51.176;4.452;2022-11-20T16:00:36;8.50;99.90
24686;DHT22;12804;51.176;4.452;2022-11-20T16:03:02;8.50;99.90
24686;DHT22;12804;51.176;4.452;2022-11-20T16:05:29;8.40;99.90
24686;DHT22;12804;51.176;4.452;2022-11-20T16:07:55;8.50;99.90
24686;DHT22;12804;51.176;4.452;2022-11-20T16:10:21;8.60;99.90
24686;DHT22;12804;51.176;4.452;2022-11-20T16:12:48;8.70;99.90
24686;DHT22;12804;51.176;4.452;2022-11-20T16:15:33;8.70;99.90
24686;DHT22;12804;51.176;4.452;2022-11-20T16:18:14;8.80;99.90
24686;DHT22;12804;51.176;4.452;2022-11-20T16:20:40;8.80;99.90
24686;DHT22;12804;51.176;4.452;2022-11-20T16:23:06;8.70;99.90
24686;DHT22;12804;51.176;4.452;2022-11-20T16:25:32;8.70;99.90
24686;DHT22;12804;51.176;4.452;2022-11-20T16:27:59;8.80;99.90
24686;DHT22;12804;51.176;4.452;2022-11-20T16:30:24;8.80;99.90
24686;DHT22;12804;51.176;4.452;2022-11-20T16:32:50;8.80;99.90
24686;DHT22;12804;51.176;4.452;2022-11-20T16:35:16;8.80;99.90
24686;DHT22;12804;51.176;4.452;2022-11-20T16:37:42;8.80;99.90
24686;DHT22;12804;51.176;4.452;2022-11-20T16:40:10;8.80;99.90
24686;DHT22;12804;51.176;4.452;2022-11-20T16:42:36;8.80;99.90
24686;DHT22;12804;51.176;4.452;2022-11-20T16:45:03;8.80;99.90
24686;DHT22;12804;51.176;4.452;2022-11-20T16:47:34;8.70;99.90
24686;DHT22;12804;51.176;4.452;2022-11-20T16:50:03;8.70;99.90
24686;DHT22;12804;51.176;4.452;2022-11-20T16:52:30;8.70;99.90
24686;DHT22;12804;51.176;4.452;2022-11-20T16:54:56;8.60;99.90
24686;DHT22;12804;51.176;4.452;2022-11-20T16:57:23;8.60;99.90
24686;DHT22;12804;51.176;4.452;2022-11-20T16:59:49;8.60;99.90
24686;DHT22;12804;51.176;4.452;2022-11-20T17:02:15;8.70;99.90
24686;DHT22;12804;51.176;4.452;2022-11-20T17:04:41;8.70;99.90
24686;DHT22;12804;51.176;4.452;2022-11-20T17:07:07;8.70;99.90
24686;DHT22;12804;51.176;4.452;2022-11-20T17:09:33;8.70;99.90
24686;DHT22;12804;51.176;4.452;2022-11-20T17:11:59;8.70;99.90
24686;DHT22;12804;51.176;4.452;2022-11-20T17:14:25;8.70;99.90
24686;DHT22;12804;51.176;4.452;2022-11-20T17:16:51;8.80;99.90
24686;DHT22;12804;51.176;4.452;2022-11-20T17:19:16;8.70;99.90
24686;DHT22;12804;51.176;4.452;2022-11-20T17:21:42;8.90;99.90